Time;durP1;ratioP1;P1;durP2;ratioP2;P2;SDS_P1;SDS_P2;PMS_P1;PMS_P2;Temp;Humidity;BMP_temperature;BMP_pressure;BME280_temperature;BME280_humidity;BME280_pressure;Samples;Min_cycle;Max_cycle;Signal;HPM_P1;HPM_P2
2022/06/20 00:02:25;;;;;;;;;;;512.40;2380.80;;;;;;5071453;28;20377;-58
2022/06/20 00:04:52;;;;;;;;;;;512.50;2380.80;;;;;;5071456;28;19991;-58
2022/06/20 00:07:18;;;;;;;;;;;512.40;2380.80;;;;;;5071535;28;19904;-57
2022/06/20 00:09:43;;;;;;;;;;;512.40;2380.80;;;;;;5071510;28;19911;-57
2022/06/20 00:12:12;;;;;;;;;;;512.50;2380.80;;;;;;5071388;28;19917;-57
2022/06/20 00:14:37;;;;;;;;;;;512.30;2380.80;;;;;;5071434;28;19917;-58
2022/06/20 00:17:08;;;;;;;;;;;512.40;2380.80;;;;;;5071136;28;20272;-58
2022/06/20 00:19:34;;;;;;;;;;;512.50;2380.80;;;;;;5071047;28;19904;-57
2022/06/20 00:21:59;;;;;;;;;;;512.50;2380.80;;;;;;5071236;28;19905;-57
2022/06/20 00:24:26;;;;;;;;;;;512.40;2380.80;;;;;;5071072;28;19904;-57
2022/06/20 00:26:52;;;;;;;;;;;512.30;2380.80;;;;;;5070907;28;19904;-57
2022/06/20 00:29:17;;;;;;;;;;;512.30;2380.80;;;;;;5071107;28;20330;-57
2022/06/20 00:31:43;;;;;;;;;;;512.20;2380.80;;;;;;5070881;28;19912;-57
2022/06/20 00:34:09;;;;;;;;;;;512.10;2380.80;;;;;;5070956;28;20305;-57
2022/06/20 00:36:34;;;;;;;;;;;487.30;2380.80;;;;;;5070642;28;19944;-58
2022/06/20 00:39:00;;;;;;;;;;;487.30;2380.80;;;;;;5070933;28;19958;-57
2022/06/20 00:41:28;;;;;;;;;;;487.30;2380.80;;;;;;5070921;28;19904;-57
2022/06/20 00:43:54;;;;;;;;;;;512.10;2380.80;;;;;;5070771;28;19963;-58
2022/06/20 00:46:24;;;;;;;;;;;512.20;2380.80;;;;;;5070937;28;19951;-57
2022/06/20 00:48:52;;;;;;;;;;;512.10;2380.80;;;;;;5070967;28;19908;-57
2022/06/20 00:51:43;;;;;;;;;;;512.10;2380.80;;;;;;5070846;28;19962;-57
2022/06/20 00:54:13;;;;;;;;;;;512.10;2380.80;;;;;;5032401;28;19912;-57
2022/06/20 00:57:00;;;;;;;;;;;487.30;2380.80;;;;;;5070774;28;19904;-58
2022/06/20 00:59:34;;;;;;;;;;;487.20;2380.80;;;;;;5070559;28;19920;-57
2022/06/20 01:02:02;;;;;;;;;;;487.20;2380.80;;;;;;5070736;28;19911;-56
2022/06/20 01:04:27;;;;;;;;;;;487.10;2380.80;;;;;;5070846;28;19940;-58
2022/06/20 01:06:55;;;;;;;;;;;487.20;2380.80;;;;;;5070396;28;19935;-57
2022/06/20 01:09:23;;;;;;;;;;;487.10;2380.80;;;;;;5070738;28;19944;-57
2022/06/20 01:11:54;;;;;;;;;;;487.10;2380.80;;;;;;5070647;28;19986;-58
2022/06/20 01:14:22;;;;;;;;;;;487.10;2380.80;;;;;;5070439;28;19958;-58
2022/06/20 01:16:48;;;;;;;;;;;487.20;2380.80;;;;;;5070524;28;19993;-57
2022/06/20 01:19:21;;;;;;;;;;;487.00;2380.80;;;;;;5070479;28;19908;-58
2022/06/20 01:21:46;;;;;;;;;;;487.00;2380.80;;;;;;5070415;28;19915;-57
2022/06/20 01:24:19;;;;;;;;;;;486.80;2380.80;;;;;;5070635;28;20011;-57
2022/06/20 01:26:55;;;;;;;;;;;486.90;2380.80;;;;;;5070662;28;20243;-58
2022/06/20 01:29:21;;;;;;;;;;;486.90;2380.80;;;;;;5070321;28;19913;-58
2022/06/20 01:31:52;;;;;;;;;;;486.90;2380.80;;;;;;5070315;28;19936;-57
2022/06/20 01:34:18;;;;;;;;;;;486.90;2380.80;;;;;;5070482;28;19904;-58
2022/06/20 01:39:31;;;;;;;;;;;486.80;2380.80;;;;;;5074373;28;19950;-57
2022/06/20 01:44:42;;;;;;;;;;;486.70;2380.80;;;;;;5074376;28;19999;-57
2022/06/20 01:47:08;;;;;;;;;;;486.50;2380.80;;;;;;5074348;28;19912;-58
2022/06/20 01:49:34;;;;;;;;;;;486.50;2380.80;;;;;;5073940;28;19927;-58
2022/06/20 01:52:23;;;;;;;;;;;486.50;2380.80;;;;;;5073982;28;20363;-57
2022/06/20 01:54:56;;;;;;;;;;;486.90;2380.80;;;;;;4973500;28;19969;-58
2022/06/20 01:57:22;;;;;;;;;;;486.80;2380.80;;;;;;4973297;28;19906;-57
2022/06/20 01:59:55;;;;;;;;;;;486.70;2380.80;;;;;;4973256;28;20022;-57
2022/06/20 02:02:20;;;;;;;;;;;486.60;2380.80;;;;;;4973182;28;20301;-57
2022/06/20 02:04:46;;;;;;;;;;;486.50;2380.80;;;;;;4972970;28;19906;-57
2022/06/20 02:07:12;;;;;;;;;;;486.60;2380.80;;;;;;4972928;28;19913;-58
2022/06/20 02:09:38;;;;;;;;;;;486.60;2380.80;;;;;;4973003;28;19910;-56
2022/06/20 02:12:05;;;;;;;;;;;486.70;2380.80;;;;;;4972701;28;20357;-57
2022/06/20 02:14:34;;;;;;;;;;;486.70;2380.80;;;;;;4972979;28;19957;-57
2022/06/20 02:17:00;;;;;;;;;;;486.80;2380.80;;;;;;4972841;28;20419;-56
2022/06/20 02:19:29;;;;;;;;;;;486.80;2380.80;;;;;;4972518;28;19906;-58
2022/06/20 02:21:58;;;;;;;;;;;486.90;2380.80;;;;;;4972425;28;20337;-56
2022/06/20 02:24:25;;;;;;;;;;;486.70;2380.80;;;;;;4972439;28;19910;-57
2022/06/20 02:26:53;;;;;;;;;;;486.70;2380.80;;;;;;4972599;28;19993;-58
2022/06/20 02:29:21;;;;;;;;;;;486.60;2380.80;;;;;;4972651;28;19914;-57
2022/06/20 02:31:47;;;;;;;;;;;486.70;2380.80;;;;;;5021749;28;19919;-57
2022/06/20 02:34:13;;;;;;;;;;;486.80;2380.80;;;;;;5073161;28;19908;-57
2022/06/20 02:36:38;;;;;;;;;;;486.90;2380.80;;;;;;5073135;28;20300;-56
2022/06/20 02:39:04;;;;;;;;;;;486.90;2380.80;;;;;;5072968;28;19911;-57
2022/06/20 02:41:30;;;;;;;;;;;487.00;2380.80;;;;;;5073166;28;19990;-57
2022/06/20 02:44:01;;;;;;;;;;;487.20;2380.80;;;;;;5072969;28;19911;-57
2022/06/20 02:46:28;;;;;;;;;;;487.00;2380.80;;;;;;5073015;28;19947;-58
2022/06/20 02:48:55;;;;;;;;;;;486.80;2380.80;;;;;;5071646;28;20334;-57
2022/06/20 02:51:24;;;;;;;;;;;486.60;2380.80;;;;;;5073261;28;19944;-57
2022/06/20 02:53:57;;;;;;;;;;;486.60;2380.80;;;;;;5073184;28;19974;-57
2022/06/20 02:56:24;;;;;;;;;;;486.40;2380.80;;;;;;5072672;28;19928;-58
2022/06/20 02:58:51;;;;;;;;;;;486.70;2380.80;;;;;;5072332;28;20015;-57
2022/06/20 03:01:17;;;;;;;;;;;486.70;2380.80;;;;;;5073046;28;19912;-57
2022/06/20 03:03:44;;;;;;;;;;;486.70;2380.80;;;;;;5072635;28;19909;-58
2022/06/20 03:06:14;;;;;;;;;;;486.50;2380.80;;;;;;5072584;28;19911;-56
2022/06/20 03:08:40;;;;;;;;;;;486.50;2380.80;;;;;;5073066;28;20347;-57
2022/06/20 03:11:05;;;;;;;;;;;486.40;2380.80;;;;;;5072568;28;19920;-56
2022/06/20 03:13:36;;;;;;;;;;;486.40;2380.80;;;;;;5072604;28;20286;-57
2022/06/20 03:16:02;;;;;;;;;;;461.70;2380.80;;;;;;5072637;28;20062;-57
2022/06/20 03:18:28;;;;;;;;;;;461.70;2380.80;;;;;;5072637;28;19927;-58
2022/06/20 03:20:54;;;;;;;;;;;461.70;2380.80;;;;;;5072219;28;19915;-58
2022/06/20 03:23:19;;;;;;;;;;;461.70;2380.80;;;;;;5072537;28;19909;-57
2022/06/20 03:25:45;;;;;;;;;;;461.70;2380.80;;;;;;5072316;28;19950;-57
2022/06/20 03:28:17;;;;;;;;;;;486.40;2380.80;;;;;;5072335;28;19908;-57
2022/06/20 03:30:42;;;;;;;;;;;486.40;2380.80;;;;;;5072146;28;19989;-58
2022/06/20 03:33:13;;;;;;;;;;;486.40;2380.80;;;;;;5072221;28;20346;-58
2022/06/20 03:35:41;;;;;;;;;;;486.40;2380.80;;;;;;5072088;28;20359;-57
2022/06/20 03:38:07;;;;;;;;;;;486.40;2380.80;;;;;;5071869;28;19904;-56
2022/06/20 03:40:33;;;;;;;;;;;486.40;2380.80;;;;;;5071862;28;20347;-58
2022/06/20 03:42:59;;;;;;;;;;;486.60;2380.80;;;;;;5071990;28;19904;-57
2022/06/20 03:45:30;;;;;;;;;;;486.60;2380.80;;;;;;5071893;28;19904;-57
2022/06/20 03:48:01;;;;;;;;;;;486.70;2380.80;;;;;;5071723;28;20364;-57
2022/06/20 03:50:32;;;;;;;;;;;486.80;2380.80;;;;;;5071735;28;19905;-57
2022/06/20 03:53:04;;;;;;;;;;;486.90;2380.80;;;;;;5071780;28;19934;-57
2022/06/20 03:55:34;;;;;;;;;;;487.00;2380.80;;;;;;5072046;28;20359;-57
2022/06/20 03:58:05;;;;;;;;;;;487.00;2380.80;;;;;;5071612;28;20309;-58
2022/06/20 04:00:38;;;;;;;;;;;487.10;2380.80;;;;;;5071469;28;19912;-57
2022/06/20 04:03:11;;;;;;;;;;;487.10;2380.80;;;;;;5071597;28;19966;-58
2022/06/20 04:05:41;;;;;;;;;;;487.10;2380.80;;;;;;5071266;28;19991;-57
2022/06/20 04:08:10;;;;;;;;;;;487.10;2380.80;;;;;;5071329;28;20033;-57
2022/06/20 04:13:35;;;;;;;;;;;487.30;2380.80;;;;;;5071301;28;19915;-57
2022/06/20 04:16:01;;;;;;;;;;;487.20;2380.80;;;;;;5071574;28;20286;-57
2022/06/20 04:18:30;;;;;;;;;;;512.20;2380.80;;;;;;5071229;28;19905;-57
2022/06/20 04:21:01;;;;;;;;;;;512.30;2380.80;;;;;;5071118;28;19927;-57
2022/06/20 04:23:38;;;;;;;;;;;512.50;2380.80;;;;;;5071054;28;20061;-57
2022/06/20 04:26:07;;;;;;;;;;;512.90;2380.80;;;;;;5071091;28;19951;-57
2022/06/20 04:28:33;;;;;;;;;;;537.70;2406.40;;;;;;5070783;28;20538;-58
2022/06/20 04:31:02;;;;;;;;;;;537.80;2406.40;;;;;;5071143;28;19917;-58
2022/06/20 04:33:28;;;;;;;;;;;614.90;2304.00;;;;;;5071064;28;20317;-57
2022/06/20 04:36:11;;;;;;;;;;;742.50;1740.80;;;;;;5070706;28;19995;-58
2022/06/20 04:39:02;;;;;;;;;;;794.20;1484.80;;;;;;5070657;28;19943;-58
2022/06/20 04:41:34;;;;;;;;;;;845.70;1331.20;;;;;;5065765;28;19958;-58
2022/06/20 04:44:20;;;;;;;;;;;896.70;1203.20;;;;;;5070818;28;19912;-57
2022/06/20 04:46:49;;;;;;;;;;;922.50;1152.00;;;;;;4969950;28;19954;-55
2022/06/20 04:49:16;;;;;;;;;;;947.80;1126.40;;;;;;4969896;28;20431;-55
2022/06/20 04:51:44;;;;;;;;;;;973.10;1100.80;;;;;;4970048;28;20004;-55
2022/06/20 04:54:13;;;;;;;;;;;973.20;1100.80;;;;;;4970111;28;19910;-58
2022/06/20 04:56:39;;;;;;;;;;;973.70;1075.20;;;;;;4970027;28;19910;-58
2022/06/20 04:59:10;;;;;;;;;;;998.80;1075.20;;;;;;4969475;28;19989;-58
2022/06/20 05:01:36;;;;;;;;;;;1024.30;1049.60;;;;;;4969780;28;19960;-58
2022/06/20 05:04:05;;;;;;;;;;;1049.60;1024.00;;;;;;4969936;28;19911;-59
2022/06/20 05:06:31;;;;;;;;;;;1049.80;998.40;;;;;;4969751;28;20400;-59
2022/06/20 05:09:00;;;;;;;;;;;1049.60;1024.00;;;;;;4969681;28;19906;-58
2022/06/20 05:11:25;;;;;;;;;;;1050.20;998.40;;;;;;4969178;28;20004;-58
2022/06/20 05:14:09;;;;;;;;;;;1075.60;972.80;;;;;;4969491;28;20428;-56
2022/06/20 05:16:42;;;;;;;;;;;1101.20;947.20;;;;;;4969498;28;19906;-58
2022/06/20 05:19:12;;;;;;;;;;;1101.70;947.20;;;;;;4969513;28;19913;-57
2022/06/20 05:21:40;;;;;;;;;;;1126.90;921.60;;;;;;4969523;28;20392;-57
2022/06/20 05:24:10;;;;;;;;;;;1152.10;896.00;;;;;;5018400;28;19920;-56
2022/06/20 05:26:38;;;;;;;;;;;1152.20;896.00;;;;;;5050214;28;19905;-57
2022/06/20 05:29:06;;;;;;;;;;;1152.50;870.40;;;;;;5050077;28;20393;-56
2022/06/20 05:31:34;;;;;;;;;;;1177.60;844.80;;;;;;5050319;28;19917;-59
2022/06/20 05:34:10;;;;;;;;;;;1178.00;870.40;;;;;;5050345;28;19939;-58
2022/06/20 05:36:49;;;;;;;;;;;1178.50;844.80;;;;;;5050083;28;19937;-58
2022/06/20 05:39:37;;;;;;;;;;;1203.90;819.20;;;;;;5050189;28;19904;-58
2022/06/20 05:42:04;;;;;;;;;;;1228.80;819.20;;;;;;5050207;28;19931;-56
2022/06/20 05:44:29;;;;;;;;;;;1229.50;819.20;;;;;;5050363;28;19911;-57
2022/06/20 05:47:01;;;;;;;;;;;1229.40;819.20;;;;;;5050195;28;19905;-54
2022/06/20 05:49:30;;;;;;;;;;;1254.40;819.20;;;;;;5050190;28;20347;-57
2022/06/20 05:51:58;;;;;;;;;;;1229.40;819.20;;;;;;5050001;28;19963;-59
2022/06/20 05:54:26;;;;;;;;;;;1254.40;844.80;;;;;;5050063;28;19908;-55
2022/06/20 05:57:05;;;;;;;;;;;1254.90;819.20;;;;;;5049873;28;20385;-58
2022/06/20 05:59:31;;;;;;;;;;;1254.80;819.20;;;;;;5063079;28;20252;-57
2022/06/20 06:02:04;;;;;;;;;;;1254.90;819.20;;;;;;5069909;28;19958;-58
2022/06/20 06:04:33;;;;;;;;;;;1280.50;768.00;;;;;;5070142;28;19933;-57
2022/06/20 06:07:05;;;;;;;;;;;1280.20;793.60;;;;;;5070106;28;19911;-56
2022/06/20 06:10:06;;;;;;;;;;;1305.90;742.40;;;;;;5070201;28;19911;-57
2022/06/20 06:12:41;;;;;;;;;;;1280.70;793.60;;;;;;4968896;28;20008;-59
2022/06/20 06:15:09;;;;;;;;;;;1255.30;819.20;;;;;;4968857;28;19906;-59
2022/06/20 06:17:43;;;;;;;;;;;1305.60;768.00;;;;;;4968881;28;19957;-59
2022/06/20 06:20:28;;;;;;;;;;;1306.00;768.00;;;;;;4969129;28;20451;-59
2022/06/20 06:22:56;;;;;;;;;;;1306.20;742.40;;;;;;4969107;28;19917;-59
2022/06/20 06:25:21;;;;;;;;;;;1305.90;768.00;;;;;;4972747;28;19988;-59
2022/06/20 06:27:48;;;;;;;;;;;1255.10;844.80;;;;;;4972565;28;20440;-59
2022/06/20 06:30:19;;;;;;;;;;;1306.50;742.40;;;;;;4972457;28;19914;-59
2022/06/20 06:32:48;;;;;;;;;;;1331.40;742.40;;;;;;4972205;28;19953;-60
2022/06/20 06:35:29;;;;;;;;;;;1306.20;768.00;;;;;;4972330;28;20364;-58
2022/06/20 06:37:54;;;;;;;;;;;1280.20;844.80;;;;;;4972033;28;19941;-57
2022/06/20 06:40:26;;;;;;;;;;;1255.00;844.80;;;;;;4972279;28;19952;-59
2022/06/20 06:42:55;;;;;;;;;;;1203.70;896.00;;;;;;4972235;28;19945;-59
2022/06/20 06:45:23;;;;;;;;;;;1254.80;844.80;;;;;;4975039;28;19905;-58
2022/06/20 06:47:53;;;;;;;;;;;1228.80;896.00;;;;;;5073009;28;19904;-59
2022/06/20 06:50:27;;;;;;;;;;;1229.20;870.40;;;;;;5072855;28;19904;-58
2022/06/20 06:52:56;;;;;;;;;;;1280.50;793.60;;;;;;5072601;28;19999;-58
2022/06/20 06:55:26;;;;;;;;;;;1254.90;844.80;;;;;;5072818;28;19911;-59
2022/06/20 06:58:21;;;;;;;;;;;1255.00;844.80;;;;;;5072529;28;20288;-58
2022/06/20 07:00:49;;;;;;;;;;;1305.60;768.00;;;;;;5050879;28;20325;-58
2022/06/20 07:03:24;;;;;;;;;;;1255.30;819.20;;;;;;5072517;28;19905;-59
2022/06/20 07:05:54;;;;;;;;;;;1280.70;793.60;;;;;;5072861;28;19935;-58
2022/06/20 07:08:26;;;;;;;;;;;1305.70;768.00;;;;;;5072842;28;19905;-58
2022/06/20 07:10:57;;;;;;;;;;;1331.20;742.40;;;;;;5072173;28;19908;-55
2022/06/20 07:13:26;;;;;;;;;;;1254.60;819.20;;;;;;5072204;28;20274;-58
2022/06/20 07:15:54;;;;;;;;;;;1254.40;819.20;;;;;;5072539;28;19988;-57
2022/06/20 07:18:26;;;;;;;;;;;1305.60;742.40;;;;;;5072300;28;19905;-58
2022/06/20 07:20:51;;;;;;;;;;;1357.10;691.20;;;;;;5072307;28;20053;-59
2022/06/20 07:23:17;;;;;;;;;;;1305.60;742.40;;;;;;5071747;28;20374;-60
2022/06/20 07:25:46;;;;;;;;;;;1280.90;742.40;;;;;;5071633;28;19912;-59
2022/06/20 07:28:29;;;;;;;;;;;1255.00;793.60;;;;;;5071595;28;20432;-59
2022/06/20 07:30:57;;;;;;;;;;;1280.20;768.00;;;;;;5051778;28;19980;-59
2022/06/20 07:33:26;;;;;;;;;;;1306.30;742.40;;;;;;5052064;28;19909;-60
2022/06/20 07:35:54;;;;;;;;;;;1331.60;691.20;;;;;;5051394;28;19904;-58
2022/06/20 07:38:23;;;;;;;;;;;1305.90;691.20;;;;;;5060894;28;19908;-58
2022/06/20 07:40:51;;;;;;;;;;;1331.60;716.80;;;;;;5071345;28;20070;-56
2022/06/20 07:43:21;;;;;;;;;;;1331.20;742.40;;;;;;5071051;28;19931;-60
2022/06/20 07:45:48;;;;;;;;;;;1356.80;742.40;;;;;;5071274;28;20009;-57
2022/06/20 07:48:20;;;;;;;;;;;1357.70;691.20;;;;;;5071676;28;19920;-58
2022/06/20 07:50:48;;;;;;;;;;;1356.90;742.40;;;;;;5071818;28;19927;-59
2022/06/20 07:53:17;;;;;;;;;;;1357.70;691.20;;;;;;5071876;28;19935;-58
2022/06/20 07:55:51;;;;;;;;;;;1382.90;691.20;;;;;;5072044;28;20256;-59
2022/06/20 07:58:23;;;;;;;;;;;1383.30;665.60;;;;;;5071440;28;19924;-58
2022/06/20 08:00:50;;;;;;;;;;;1383.30;691.20;;;;;;5071773;28;19910;-59
2022/06/20 08:03:18;;;;;;;;;;;1382.90;691.20;;;;;;5071515;28;19955;-59
2022/06/20 08:06:04;;;;;;;;;;;1357.50;691.20;;;;;;5071662;28;19908;-59
2022/06/20 08:08:53;;;;;;;;;;;1306.20;716.80;;;;;;5071460;28;20420;-59
2022/06/20 08:11:41;;;;;;;;;;;1280.50;742.40;;;;;;4970592;28;20290;-59
2022/06/20 08:14:26;;;;;;;;;;;1255.10;742.40;;;;;;4970582;28;19913;-59
2022/06/20 08:16:53;;;;;;;;;;;1178.50;819.20;;;;;;4970528;28;20380;-58
2022/06/20 08:19:19;;;;;;;;;;;1101.30;870.40;;;;;;4973154;28;19996;-58
2022/06/20 08:21:46;;;;;;;;;;;1050.40;921.60;;;;;;4970299;28;20052;-58
2022/06/20 08:24:18;;;;;;;;;;;1024.50;947.20;;;;;;4970547;28;20595;-58
2022/06/20 08:26:47;;;;;;;;;;;999.00;972.80;;;;;;4970432;28;20384;-58
2022/06/20 08:29:15;;;;;;;;;;;973.70;998.40;;;;;;4970124;28;19917;-59
2022/06/20 08:31:47;;;;;;;;;;;973.40;1024.00;;;;;;4970301;28;19954;-59
2022/06/20 08:34:22;;;;;;;;;;;947.70;1024.00;;;;;;4970167;28;19906;-57
2022/06/20 08:37:08;;;;;;;;;;;947.60;1049.60;;;;;;4970238;28;19914;-58
2022/06/20 08:39:37;;;;;;;;;;;947.40;1075.20;;;;;;4969345;28;19918;-58
2022/06/20 08:42:18;;;;;;;;;;;922.50;1075.20;;;;;;4977058;28;20475;-57
2022/06/20 08:44:46;;;;;;;;;;;922.50;1075.20;;;;;;4969128;28;19914;-57
2022/06/20 08:47:27;;;;;;;;;;;922.50;1075.20;;;;;;4973247;28;20308;-56
2022/06/20 08:50:12;;;;;;;;;;;922.10;1100.80;;;;;;5070393;28;19908;-58
2022/06/20 08:52:45;;;;;;;;;;;921.80;1100.80;;;;;;5069385;28;19928;-54
2022/06/20 08:55:42;;;;;;;;;;;921.70;1126.40;;;;;;5062684;28;19908;-54
2022/06/20 08:58:08;;;;;;;;;;;921.70;1100.80;;;;;;4969257;28;20015;-56
2022/06/20 09:00:42;;;;;;;;;;;921.70;1126.40;;;;;;4969724;28;19918;-56
2022/06/20 09:03:08;;;;;;;;;;;896.90;1100.80;;;;;;4969967;28;19906;-57
2022/06/20 09:05:51;;;;;;;;;;;896.40;1100.80;;;;;;4969758;28;19917;-57
2022/06/20 09:08:17;;;;;;;;;;;896.60;1100.80;;;;;;4969528;28;20500;-56
2022/06/20 09:10:51;;;;;;;;;;;896.80;1075.20;;;;;;4969602;28;19914;-58
2022/06/20 09:13:20;;;;;;;;;;;896.70;1126.40;;;;;;4969628;28;20420;-57
2022/06/20 09:15:52;;;;;;;;;;;896.00;1075.20;;;;;;4969687;28;20361;-57
2022/06/20 09:18:27;;;;;;;;;;;896.20;1100.80;;;;;;4969897;28;19906;-56
2022/06/20 09:20:55;;;;;;;;;;;896.00;1126.40;;;;;;4969778;28;19957;-55
2022/06/20 09:23:33;;;;;;;;;;;871.30;1126.40;;;;;;4969556;28;19910;-57
2022/06/20 09:26:01;;;;;;;;;;;871.30;1126.40;;;;;;4969699;28;19917;-55
2022/06/20 09:28:35;;;;;;;;;;;871.30;1100.80;;;;;;4969324;28;20257;-56
2022/06/20 09:31:15;;;;;;;;;;;871.10;1126.40;;;;;;4969658;28;19914;-57
2022/06/20 09:33:43;;;;;;;;;;;871.10;1126.40;;;;;;5008713;28;19909;-56
2022/06/20 09:36:27;;;;;;;;;;;871.10;1100.80;;;;;;5050429;28;19916;-58
2022/06/20 09:39:14;;;;;;;;;;;871.00;1075.20;;;;;;5050308;28;20317;-58
2022/06/20 09:41:43;;;;;;;;;;;871.00;1126.40;;;;;;5050406;28;19905;-55
2022/06/20 09:44:14;;;;;;;;;;;871.10;1100.80;;;;;;5050245;28;19909;-57
2022/06/20 09:46:58;;;;;;;;;;;871.10;1126.40;;;;;;5050152;28;20365;-57
2022/06/20 09:49:33;;;;;;;;;;;871.10;1177.60;;;;;;5050106;28;19908;-57
2022/06/20 09:52:04;;;;;;;;;;;871.10;1177.60;;;;;;5050106;28;19913;-57
2022/06/20 09:54:45;;;;;;;;;;;871.10;1152.00;;;;;;5050167;28;19909;-57
2022/06/20 09:57:14;;;;;;;;;;;870.80;1177.60;;;;;;5050054;28;19935;-58
2022/06/20 09:59:43;;;;;;;;;;;870.80;1126.40;;;;;;5053070;28;19921;-56
2022/06/20 10:02:20;;;;;;;;;;;870.70;1126.40;;;;;;5053964;28;19915;-57
2022/06/20 10:04:51;;;;;;;;;;;870.60;1100.80;;;;;;5054002;28;20309;-57
2022/06/20 10:07:25;;;;;;;;;;;870.70;1075.20;;;;;;5054003;28;20294;-58
2022/06/20 10:09:59;;;;;;;;;;;870.60;1049.60;;;;;;5053849;28;19905;-57
2022/06/20 10:12:24;;;;;;;;;;;870.70;1075.20;;;;;;5053526;28;19913;-58
2022/06/20 10:15:00;;;;;;;;;;;870.60;1075.20;;;;;;5053959;28;19905;-56
2022/06/20 10:17:31;;;;;;;;;;;870.70;1100.80;;;;;;5053723;28;19912;-57
2022/06/20 10:20:09;;;;;;;;;;;870.50;1152.00;;;;;;5053487;28;20011;-58
2022/06/20 10:22:50;;;;;;;;;;;870.50;1152.00;;;;;;5053262;28;20278;-57
2022/06/20 10:25:16;;;;;;;;;;;870.50;1100.80;;;;;;5053457;28;20271;-57
2022/06/20 10:28:07;;;;;;;;;;;870.50;1126.40;;;;;;5053314;28;19915;-58
2022/06/20 10:30:36;;;;;;;;;;;870.40;1152.00;;;;;;5053273;28;19931;-56
2022/06/20 10:33:20;;;;;;;;;;;870.40;1100.80;;;;;;5053342;28;19913;-57
2022/06/20 10:36:04;;;;;;;;;;;845.70;1126.40;;;;;;5053383;28;19913;-58
2022/06/20 10:38:53;;;;;;;;;;;845.70;1100.80;;;;;;5053371;28;20240;-56
2022/06/20 10:41:26;;;;;;;;;;;845.40;1075.20;;;;;;4972197;28;19926;-58
2022/06/20 10:43:52;;;;;;;;;;;845.50;1024.00;;;;;;4972299;28;19906;-57
2022/06/20 10:46:18;;;;;;;;;;;845.60;998.40;;;;;;4972372;28;19913;-55
2022/06/20 10:48:57;;;;;;;;;;;845.50;998.40;;;;;;4972287;28;20324;-57
2022/06/20 10:51:43;;;;;;;;;;;844.90;1024.00;;;;;;4972058;28;19914;-56
2022/06/20 10:54:21;;;;;;;;;;;844.90;1049.60;;;;;;4972079;28;20030;-55
2022/06/20 10:56:53;;;;;;;;;;;845.20;1075.20;;;;;;4971880;28;20419;-55
2022/06/20 10:59:33;;;;;;;;;;;844.90;1024.00;;;;;;4971823;28;19922;-56
2022/06/20 11:02:05;;;;;;;;;;;845.00;1100.80;;;;;;4971983;28;19910;-57
2022/06/20 11:04:40;;;;;;;;;;;845.20;1049.60;;;;;;4971941;28;19906;-56
2022/06/20 11:07:11;;;;;;;;;;;845.20;1049.60;;;;;;4971687;28;19913;-56
2022/06/20 11:09:42;;;;;;;;;;;845.40;1024.00;;;;;;4971048;28;19922;-57
2022/06/20 11:12:34;;;;;;;;;;;845.30;1049.60;;;;;;4971727;28;19921;-55
2022/06/20 11:15:02;;;;;;;;;;;845.20;1075.20;;;;;;4971897;28;20347;-57
2022/06/20 11:17:46;;;;;;;;;;;845.20;1049.60;;;;;;4977876;28;19995;-56
2022/06/20 11:20:16;;;;;;;;;;;845.20;1049.60;;;;;;5012919;28;19905;-57
2022/06/20 11:22:44;;;;;;;;;;;845.20;1075.20;;;;;;5012883;28;19913;-57
2022/06/20 11:25:09;;;;;;;;;;;845.20;1126.40;;;;;;5012873;28;20339;-57
2022/06/20 11:27:38;;;;;;;;;;;845.20;1075.20;;;;;;5012229;28;19917;-56
2022/06/20 11:30:16;;;;;;;;;;;820.10;1049.60;;;;;;5012373;28;19995;-57
2022/06/20 11:32:51;;;;;;;;;;;820.00;1049.60;;;;;;5012516;28;19913;-57
2022/06/20 11:35:27;;;;;;;;;;;844.80;1126.40;;;;;;5012655;28;20000;-57
2022/06/20 11:37:56;;;;;;;;;;;820.10;1024.00;;;;;;5012261;28;20386;-58
2022/06/20 11:40:28;;;;;;;;;;;820.10;1049.60;;;;;;5012195;28;19985;-55
2022/06/20 11:43:15;;;;;;;;;;;844.90;1100.80;;;;;;5012231;28;19909;-57
2022/06/20 11:45:59;;;;;;;;;;;845.00;1152.00;;;;;;5012357;28;19905;-58
2022/06/20 11:48:33;;;;;;;;;;;820.10;1024.00;;;;;;5012144;28;19906;-57
2022/06/20 11:50:59;;;;;;;;;;;819.80;1024.00;;;;;;5012067;28;19913;-56
2022/06/20 11:53:24;;;;;;;;;;;820.00;998.40;;;;;;5011783;28;19911;-57
2022/06/20 11:55:52;;;;;;;;;;;844.80;1049.60;;;;;;5012049;28;20001;-57
2022/06/20 11:58:27;;;;;;;;;;;845.00;1075.20;;;;;;5018004;28;19943;-57
2022/06/20 12:00:56;;;;;;;;;;;845.10;1024.00;;;;;;5051472;28;19932;-57
2022/06/20 12:03:28;;;;;;;;;;;845.20;1024.00;;;;;;5051475;28;20290;-57
2022/06/20 12:06:05;;;;;;;;;;;845.30;1049.60;;;;;;5051412;28;20339;-57
2022/06/20 12:08:33;;;;;;;;;;;820.10;972.80;;;;;;5051538;28;19904;-57
2022/06/20 12:11:04;;;;;;;;;;;844.80;998.40;;;;;;5051479;28;19905;-57
2022/06/20 12:13:35;;;;;;;;;;;820.00;998.40;;;;;;5051346;28;20359;-57
2022/06/20 12:16:30;;;;;;;;;;;820.10;998.40;;;;;;5051429;28;19908;-57
2022/06/20 12:24:24;;;;;;;;;;;845.20;1049.60;;;;;;4970585;28;19917;-56
2022/06/20 12:26:50;;;;;;;;;;;845.20;998.40;;;;;;4970460;28;19906;-57
2022/06/20 12:29:17;;;;;;;;;;;845.20;1049.60;;;;;;4970261;28;19913;-57
2022/06/20 12:31:45;;;;;;;;;;;844.90;972.80;;;;;;4970365;28;19910;-57
2022/06/20 12:34:10;;;;;;;;;;;845.20;1024.00;;;;;;4970319;28;20435;-56
2022/06/20 12:36:36;;;;;;;;;;;845.20;1024.00;;;;;;4969978;28;19906;-57
2022/06/20 12:39:05;;;;;;;;;;;845.30;1024.00;;;;;;4970114;28;19934;-56
2022/06/20 12:41:34;;;;;;;;;;;845.20;998.40;;;;;;4970180;28;19948;-57
2022/06/20 12:44:00;;;;;;;;;;;845.30;1049.60;;;;;;4970136;28;19929;-57
2022/06/20 12:46:37;;;;;;;;;;;845.10;947.20;;;;;;4969846;28;19905;-57
2022/06/20 12:49:03;;;;;;;;;;;845.00;1024.00;;;;;;4969781;28;19906;-57
2022/06/20 12:51:52;;;;;;;;;;;845.10;1049.60;;;;;;4969856;28;19934;-56
2022/06/20 12:54:38;;;;;;;;;;;845.00;1024.00;;;;;;4976837;28;19949;-58
2022/06/20 12:57:22;;;;;;;;;;;845.20;1075.20;;;;;;5050417;28;19962;-57
2022/06/20 13:00:17;;;;;;;;;;;844.90;1024.00;;;;;;5050399;28;20386;-57
2022/06/20 13:02:54;;;;;;;;;;;820.10;1024.00;;;;;;5033087;28;19905;-55
2022/06/20 13:05:39;;;;;;;;;;;820.10;998.40;;;;;;5050485;28;19920;-55
2022/06/20 13:08:28;;;;;;;;;;;844.90;1075.20;;;;;;4969367;28;19913;-55
2022/06/20 13:11:06;;;;;;;;;;;845.00;1075.20;;;;;;4969545;28;20061;-56
2022/06/20 13:13:40;;;;;;;;;;;845.20;1100.80;;;;;;4969759;28;19945;-56
2022/06/20 13:16:15;;;;;;;;;;;845.30;1100.80;;;;;;4969489;28;20311;-55
2022/06/20 13:18:43;;;;;;;;;;;845.30;1100.80;;;;;;4969753;28;20005;-55
2022/06/20 13:21:14;;;;;;;;;;;845.30;1075.20;;;;;;4969663;28;19914;-56
2022/06/20 13:23:44;;;;;;;;;;;845.30;1100.80;;;;;;4969540;28;20245;-56
2022/06/20 13:26:15;;;;;;;;;;;845.40;1100.80;;;;;;4969488;28;19906;-56
2022/06/20 13:28:41;;;;;;;;;;;845.40;1075.20;;;;;;4969515;28;19909;-55
2022/06/20 13:31:12;;;;;;;;;;;845.30;1126.40;;;;;;4969330;28;19914;-57
2022/06/20 13:33:53;;;;;;;;;;;845.30;1100.80;;;;;;4971010;28;19910;-55
2022/06/20 13:36:47;;;;;;;;;;;845.20;1126.40;;;;;;4973643;28;19907;-55
2022/06/20 13:39:16;;;;;;;;;;;845.30;1075.20;;;;;;4935108;29;20354;-56
2022/06/20 13:41:44;;;;;;;;;;;820.10;998.40;;;;;;4935151;29;19914;-55
2022/06/20 13:44:26;;;;;;;;;;;820.10;1024.00;;;;;;4941347;28;19918;-56
2022/06/20 13:46:59;;;;;;;;;;;819.70;1049.60;;;;;;5012394;28;20279;-56
2022/06/20 13:49:25;;;;;;;;;;;844.90;1126.40;;;;;;5012161;28;19914;-56
2022/06/20 13:51:52;;;;;;;;;;;844.90;1152.00;;;;;;5012189;28;19936;-56
2022/06/20 13:54:40;;;;;;;;;;;844.90;1100.80;;;;;;5012192;28;20384;-56
2022/06/20 13:57:13;;;;;;;;;;;844.90;1100.80;;;;;;5011990;28;19906;-58
2022/06/20 13:59:56;;;;;;;;;;;845.00;1075.20;;;;;;5012226;28;19925;-56
2022/06/20 14:02:24;;;;;;;;;;;845.10;1075.20;;;;;;5012166;28;19909;-59
2022/06/20 14:04:50;;;;;;;;;;;845.10;1075.20;;;;;;5012315;28;19936;-56
2022/06/20 14:07:24;;;;;;;;;;;845.20;1100.80;;;;;;5009680;28;19964;-54
2022/06/20 14:09:53;;;;;;;;;;;845.10;1049.60;;;;;;5009450;28;19912;-55
2022/06/20 14:12:41;;;;;;;;;;;845.00;1075.20;;;;;;5009971;28;19918;-53
2022/06/20 14:15:16;;;;;;;;;;;845.10;1075.20;;;;;;5022587;28;19935;-56
2022/06/20 14:17:49;;;;;;;;;;;845.10;1100.80;;;;;;5052068;28;19905;-55
2022/06/20 14:20:19;;;;;;;;;;;845.00;1100.80;;;;;;5051975;28;19915;-57
2022/06/20 14:22:47;;;;;;;;;;;844.90;1100.80;;;;;;5051327;28;19905;-56